logo tempoitalia

Diretta Meteo Reggio Calabria, Italiavenerdì 14 maggio ore 07:50

Mappa
Sereno 20 °C Sereno 24 Ore: T.min 14 T.max 23
Ponente Nord Km/h 11.1 Punto di rugiada: 11 °C Umidità: 56% Visibilità: 10 Km
Il sole sorge alle: 05:45 Il sole tramonta alle: 20:01
14 Maggio 2021 07:50 tempo osservato: Sereno Sereno 20 56 1014 vento: Nord N 11.1
14 Maggio 2021 07:20 tempo osservato: Sereno Sereno 18 59 1014 vento: Nord E/NE 13
14 Maggio 2021 06:50 tempo osservato: Sereno Sereno 16 67 1014 vento: Nord N 9.3
14 Maggio 2021 06:20 tempo osservato: Sereno Sereno 14 67 1014 vento: Nord E/NE 13
14 Maggio 2021 05:50 tempo osservato: Sereno Sereno 14 67 1014 vento: Nord NE 9.3
14 Maggio 2021 05:20 tempo osservato: Sereno Sereno 14 76 1014 vento: Nord N 9.3
14 Maggio 2021 04:50 tempo osservato: Sereno Sereno 14 71 1014 vento: Nord NE 11.1
14 Maggio 2021 04:20 tempo osservato: Sereno Sereno 14 71 1014 vento: Nord E/NE 13
14 Maggio 2021 03:50 tempo osservato: Sereno Sereno 14 71 1014 vento: Nord E/NE 11.1
14 Maggio 2021 03:20 tempo osservato: Sereno Sereno 14 67 1014 vento: Nord NE 9.3
14 Maggio 2021 02:50 tempo osservato: Sereno Sereno 14 71 1014 vento: Nord N 5.5
14 Maggio 2021 02:20 tempo osservato: Sereno Sereno 14 71 1014 vento: Nord N 5.5
14 Maggio 2021 01:50 tempo osservato: Sereno Sereno 15 72 1014 vento: Nord E/NE 11.1
14 Maggio 2021 01:20 tempo osservato: Sereno Sereno 15 76 1014 vento: Nord E/NE 11.1
14 Maggio 2021 00:20 tempo osservato: Sereno Sereno 15 62 1014 vento: Nord NE 11.1
13 Maggio 2021 23:50 tempo osservato: Sereno Sereno 16 63 1014 vento: Nord E/NE 14.8
13 Maggio 2021 23:20 tempo osservato: Sereno Sereno 17 59 1014 vento: Nord E 14.8
13 Maggio 2021 22:20 tempo osservato: Sereno Sereno 17 63 1014 vento: Nord E 9.3
13 Maggio 2021 21:20 tempo osservato: Sereno Sereno 18 55 1014 vento: Nord N 20.3
13 Maggio 2021 20:50 tempo osservato: Sereno Sereno 19 59 1013 vento: Nord N 24
13 Maggio 2021 20:20 tempo osservato: Sereno Sereno 18 67 1013 vento: Nord NE 14.8
13 Maggio 2021 19:50 tempo osservato: Sereno Sereno 19 68 1013 vento: Nord N/NE 20.3
13 Maggio 2021 19:20 tempo osservato: Sereno Sereno 19 68 1013 vento: Nord N/NE 18.5
13 Maggio 2021 18:50 tempo osservato: Poco Nuvoloso Poco Nuvoloso 20 59 1013 vento: Nord N/NE 18.5
13 Maggio 2021 18:20 tempo osservato: Poco Nuvoloso Poco Nuvoloso 20 59 1013 vento: Nord N/NE 22.2
13 Maggio 2021 17:50 tempo osservato: Poco Nuvoloso Poco Nuvoloso 21 56 1013 vento: Nord N/NE 25.9
13 Maggio 2021 17:20 tempo osservato: Sereno Sereno 21 56 1013 vento: Nord N/NE 27.8
13 Maggio 2021 16:50 tempo osservato: Poco Nuvoloso Poco Nuvoloso 22 53 1013 vento: Nord N/NE 24
13 Maggio 2021 16:20 tempo osservato: Poco Nuvoloso Poco Nuvoloso 22 49 1014 vento: Nord N 25.9
13 Maggio 2021 15:50 tempo osservato: Sereno Sereno 23 43 1014 vento: Nord N 27.8
13 Maggio 2021 14:50 tempo osservato: Sereno Sereno 22 43 1013 vento: Nord N 27.8
13 Maggio 2021 14:20 tempo osservato: Sereno Sereno 23 40 1013 vento: Nord N 27.8
13 Maggio 2021 13:50 tempo osservato: Sereno Sereno 23 43 1014 vento: Nord N 27.8
13 Maggio 2021 12:50 tempo osservato: Poco Nuvoloso Poco Nuvoloso 23 38 1013 vento: Nord N 27.8
13 Maggio 2021 12:20 tempo osservato: Poco Nuvoloso Poco Nuvoloso 23 35 1013 vento: Nord N 25.9
13 Maggio 2021 11:50 tempo osservato: Poco Nuvoloso Poco Nuvoloso 23 38 1013 vento: Nord N/NO 22.2
13 Maggio 2021 11:20 tempo osservato: Poco Nuvoloso Poco Nuvoloso 21 49 1013 vento: Nord O/NO 9.3
13 Maggio 2021 10:50 tempo osservato: Poco Nuvoloso Poco Nuvoloso 20 56 1013 vento: Nord O/SO 14.8
13 Maggio 2021 10:20 tempo osservato: Sereno Sereno 23 35 1013 vento: Nord N 13
13 Maggio 2021 09:50 tempo osservato: Sereno Sereno 22 37 1013 vento: Nord N/NE 16.7
13 Maggio 2021 09:20 tempo osservato: Sereno Sereno 21 40 1013 vento: Nord N 14.8
13 Maggio 2021 08:50 tempo osservato: Sereno Sereno 21 43 1013 vento: Nord N 13